createdAt,value
2018-05-01T00:02:16.391Z,12.80
2018-05-01T00:04:42.776Z,12.60
2018-05-01T00:07:09.339Z,12.50
2018-05-01T00:09:35.742Z,12.40
2018-05-01T00:12:02.140Z,12.30
2018-05-01T00:14:28.596Z,12.30
2018-05-01T00:16:55.739Z,12.40
2018-05-01T00:19:22.143Z,12.30
2018-05-01T00:21:48.534Z,12.30
2018-05-01T00:24:15.671Z,12.00
2018-05-01T00:26:42.813Z,12.00
2018-05-01T00:29:09.193Z,12.00
2018-05-01T00:31:35.579Z,12.00
2018-05-01T00:34:01.985Z,11.90
2018-05-01T00:36:28.392Z,11.90
2018-05-01T00:38:54.816Z,11.80
2018-05-01T00:41:21.197Z,11.70
2018-05-01T00:43:47.590Z,11.80
2018-05-01T00:46:13.998Z,11.80
2018-05-01T00:48:41.126Z,12.00
2018-05-01T00:51:08.316Z,12.00
2018-05-01T00:53:34.793Z,12.00
2018-05-01T00:56:01.188Z,12.10
2018-05-01T00:58:27.608Z,12.00
2018-05-01T01:00:54.037Z,12.00
2018-05-01T01:03:20.436Z,12.00
2018-05-01T01:05:46.847Z,11.90
2018-05-01T01:08:13.273Z,11.80
2018-05-01T01:10:39.690Z,11.80
2018-05-01T01:13:06.222Z,11.60
2018-05-01T01:15:32.676Z,11.50
2018-05-01T01:17:59.201Z,11.40
2018-05-01T01:20:25.617Z,11.40
2018-05-01T01:22:52.030Z,11.50
2018-05-01T01:25:18.704Z,11.50
2018-05-01T01:27:45.085Z,11.50
2018-05-01T01:30:12.219Z,11.50
2018-05-01T01:32:38.608Z,11.50
2018-05-01T01:35:04.791Z,11.50
2018-05-01T01:37:31.766Z,11.60
2018-05-01T01:39:57.944Z,11.60
2018-05-01T01:42:24.129Z,11.60
2018-05-01T01:44:50.317Z,11.80
2018-05-01T01:47:16.505Z,11.80
2018-05-01T01:49:42.716Z,12.00
2018-05-01T01:52:08.902Z,12.20
2018-05-01T01:54:35.088Z,12.00
2018-05-01T01:57:01.281Z,11.90
2018-05-01T01:59:27.477Z,11.90
2018-05-01T02:01:53.661Z,12.10
2018-05-01T02:04:19.835Z,12.20
2018-05-01T02:06:46.772Z,12.50
2018-05-01T02:09:12.955Z,12.40
2018-05-01T02:11:39.135Z,12.60
2018-05-01T02:14:05.307Z,12.70
2018-05-01T02:16:31.552Z,12.60
2018-05-01T02:18:57.734Z,12.80
2018-05-01T02:21:24.655Z,12.90
2018-05-01T02:23:50.902Z,12.90
2018-05-01T02:26:17.837Z,13.10
2018-05-01T02:28:44.014Z,13.10
2018-05-01T02:31:10.186Z,13.30
2018-05-01T02:33:36.362Z,13.10
2018-05-01T02:36:02.524Z,13.10
2018-05-01T02:38:28.718Z,13.10
2018-05-01T02:40:54.890Z,13.00
2018-05-01T02:43:21.063Z,13.00
2018-05-01T02:45:47.241Z,13.00
2018-05-01T02:48:13.422Z,13.10
2018-05-01T02:50:39.595Z,13.10
2018-05-01T02:53:05.770Z,12.90
2018-05-01T02:55:31.959Z,12.90
2018-05-01T02:57:58.132Z,12.60
2018-05-01T03:00:24.301Z,12.80
2018-05-01T03:02:50.517Z,12.90
2018-05-01T03:05:16.726Z,12.90
2018-05-01T03:07:42.915Z,12.90
2018-05-01T03:10:09.110Z,13.10
2018-05-01T03:12:35.300Z,13.00
2018-05-01T03:15:01.511Z,12.80
2018-05-01T03:17:27.715Z,12.80
2018-05-01T03:19:54.674Z,12.80
2018-05-01T03:22:20.924Z,12.80
2018-05-01T03:24:47.112Z,12.90
2018-05-01T03:27:14.119Z,13.10
2018-05-01T03:29:40.323Z,13.10
2018-05-01T03:32:06.522Z,12.90
2018-05-01T03:34:33.455Z,12.60
2018-05-01T03:37:00.393Z,12.80
2018-05-01T03:39:26.578Z,12.80
2018-05-01T03:41:52.767Z,12.60
2018-05-01T03:44:19.705Z,12.90
2018-05-01T03:46:46.653Z,13.00
2018-05-01T03:49:13.595Z,13.00
2018-05-01T03:51:40.534Z,13.00
2018-05-01T03:54:06.725Z,13.00
2018-05-01T03:56:32.917Z,13.10
2018-05-01T03:58:59.112Z,13.20
2018-05-01T04:01:25.288Z,13.20
2018-05-01T04:03:51.508Z,13.10
2018-05-01T04:06:17.703Z,13.20
2018-05-01T04:08:44.637Z,13.20
2018-05-01T04:11:10.830Z,13.20
2018-05-01T04:13:37.059Z,13.30
2018-05-01T04:16:03.234Z,13.40
2018-05-01T04:18:30.150Z,13.70
2018-05-01T04:20:56.335Z,13.70
2018-05-01T04:23:22.525Z,13.70
2018-05-01T04:25:50.247Z,13.80
2018-05-01T04:28:16.419Z,13.80
2018-05-01T04:30:42.667Z,13.90
2018-05-01T04:33:08.847Z,14.00
2018-05-01T04:35:35.034Z,14.00
2018-05-01T04:38:01.236Z,14.00
2018-05-01T04:40:28.146Z,14.00
2018-05-01T04:42:54.328Z,14.00
2018-05-01T04:45:20.514Z,14.00
2018-05-01T04:47:46.690Z,14.10
2018-05-01T04:50:12.872Z,14.00
2018-05-01T04:52:39.065Z,14.10
2018-05-01T04:55:05.267Z,13.90
2018-05-01T04:57:31.464Z,13.90
2018-05-01T04:59:57.653Z,13.80
2018-05-01T05:02:23.844Z,13.80
2018-05-01T05:04:50.038Z,13.80
2018-05-01T05:07:16.261Z,13.80
2018-05-01T05:09:42.629Z,13.70
2018-05-01T05:12:08.862Z,13.80
2018-05-01T05:14:35.087Z,14.00
2018-05-01T05:17:01.277Z,14.10
2018-05-01T05:19:28.949Z,14.20
2018-05-01T05:21:55.131Z,14.20
2018-05-01T05:24:21.315Z,14.40
2018-05-01T05:26:48.285Z,14.50
2018-05-01T05:29:14.510Z,14.50
2018-05-01T05:31:41.423Z,14.90
2018-05-01T05:34:08.505Z,15.10
2018-05-01T05:36:34.699Z,15.10
2018-05-01T05:39:00.876Z,15.30
2018-05-01T05:41:27.072Z,15.60
2018-05-01T05:43:54.000Z,16.60
2018-05-01T05:46:20.957Z,17.10
2018-05-01T05:48:47.900Z,17.90
2018-05-01T05:51:14.927Z,18.50
2018-05-01T05:53:41.240Z,18.40
2018-05-01T05:56:07.445Z,19.20
2018-05-01T05:58:33.623Z,19.70
2018-05-01T06:01:00.554Z,20.10
2018-05-01T06:03:26.745Z,20.00
2018-05-01T06:05:52.949Z,20.30
2018-05-01T06:08:19.880Z,20.10
2018-05-01T06:10:47.529Z,20.20
2018-05-01T06:13:14.460Z,19.70
2018-05-01T06:15:40.650Z,19.70
2018-05-01T06:18:06.841Z,19.20
2018-05-01T06:20:33.766Z,19.30
2018-05-01T06:23:00.689Z,19.10
2018-05-01T06:25:26.863Z,19.10
2018-05-01T06:27:53.795Z,19.60
2018-05-01T06:30:20.751Z,19.60
2018-05-01T06:32:47.663Z,19.50
2018-05-01T06:35:13.869Z,19.50
2018-05-01T06:37:40.149Z,19.70
2018-05-01T06:40:07.080Z,20.00
2018-05-01T06:42:34.017Z,20.30
2018-05-01T06:45:00.196Z,20.30
2018-05-01T06:47:26.386Z,20.40
2018-05-01T06:49:53.307Z,20.20
2018-05-01T06:52:19.487Z,20.20
2018-05-01T06:54:45.681Z,20.30
2018-05-01T06:57:12.670Z,19.40
2018-05-01T06:59:38.859Z,19.40
2018-05-01T07:02:05.043Z,19.20
2018-05-01T07:04:31.271Z,18.90
2018-05-01T07:06:57.470Z,18.70
2018-05-01T07:09:23.680Z,18.60
2018-05-01T07:11:50.612Z,18.60
2018-05-01T07:14:17.561Z,18.70
2018-05-01T07:16:44.500Z,18.70
2018-05-01T07:19:11.447Z,18.70
2018-05-01T07:21:37.823Z,18.70
2018-05-01T07:24:04.447Z,18.60
2018-05-01T07:26:30.686Z,18.60
2018-05-01T07:28:56.980Z,19.00
2018-05-01T07:31:24.081Z,19.40
2018-05-01T07:33:51.704Z,19.40
2018-05-01T07:36:18.560Z,19.60
2018-05-01T07:38:45.739Z,19.40
2018-05-01T07:41:14.131Z,19.60
2018-05-01T07:43:40.368Z,19.80
2018-05-01T07:46:07.359Z,19.80
2018-05-01T07:48:35.027Z,19.90
2018-05-01T07:51:02.435Z,19.90
2018-05-01T07:53:28.752Z,19.80
2018-05-01T07:55:55.055Z,19.80
2018-05-01T07:58:22.738Z,19.80
2018-05-01T08:00:48.943Z,19.60
2018-05-01T08:03:15.859Z,19.20
2018-05-01T08:05:42.959Z,19.60
2018-05-01T08:08:09.329Z,19.60
2018-05-01T08:10:36.589Z,19.50
2018-05-01T08:13:04.209Z,19.60
2018-05-01T08:15:30.591Z,19.70
2018-05-01T08:17:57.384Z,19.80
2018-05-01T08:20:25.265Z,20.00
2018-05-01T08:22:51.578Z,20.10
2018-05-01T08:25:19.419Z,20.10
2018-05-01T08:27:45.709Z,20.20
2018-05-01T08:30:14.235Z,19.80
2018-05-01T08:32:41.460Z,19.80
2018-05-01T08:35:07.699Z,19.40
2018-05-01T08:37:34.451Z,19.10
2018-05-01T08:40:01.357Z,19.00
2018-05-01T08:42:27.707Z,19.00
2018-05-01T08:44:54.099Z,18.90
2018-05-01T08:47:20.287Z,18.80
2018-05-01T08:49:47.182Z,19.00
2018-05-01T08:52:14.507Z,19.30
2018-05-01T08:54:40.808Z,19.50
2018-05-01T08:57:08.525Z,19.90
2018-05-01T08:59:36.132Z,19.70
2018-05-01T09:02:02.349Z,19.70
2018-05-01T09:04:28.608Z,19.80
2018-05-01T09:06:55.777Z,20.10
2018-05-01T09:09:22.933Z,20.20
2018-05-01T09:11:49.164Z,20.40
2018-05-01T09:14:15.386Z,20.60
2018-05-01T09:16:41.615Z,20.80
2018-05-01T09:19:07.812Z,20.80
2018-05-01T09:21:33.985Z,20.50
2018-05-01T09:24:01.698Z,20.50
2018-05-01T09:26:27.898Z,20.50
2018-05-01T09:28:54.834Z,20.00
2018-05-01T09:31:21.050Z,20.00
2018-05-01T09:33:47.300Z,20.00
2018-05-01T09:36:13.500Z,20.50
2018-05-01T09:38:39.719Z,20.90
2018-05-01T09:41:05.901Z,21.10
2018-05-01T09:43:32.104Z,21.10
2018-05-01T09:45:58.294Z,21.20
2018-05-01T09:48:24.475Z,21.30
2018-05-01T09:50:51.422Z,21.40
2018-05-01T09:53:17.951Z,21.30
2018-05-01T09:55:44.296Z,21.50
2018-05-01T09:58:10.695Z,21.70
2018-05-01T10:00:38.574Z,21.80
2018-05-01T10:03:05.775Z,21.60
2018-05-01T10:05:32.239Z,21.60
2018-05-01T10:07:58.638Z,21.70
2018-05-01T10:10:25.047Z,21.30
2018-05-01T10:12:51.462Z,21.30
2018-05-01T10:15:18.645Z,21.40
2018-05-01T10:17:45.059Z,21.40
2018-05-01T10:20:12.219Z,21.80
2018-05-01T10:22:38.615Z,21.80
2018-05-01T10:25:05.075Z,22.10
2018-05-01T10:27:31.527Z,22.20
2018-05-01T10:29:57.939Z,22.20
2018-05-01T10:32:25.075Z,21.90
2018-05-01T10:34:52.195Z,22.10
2018-05-01T10:37:18.580Z,22.10
2018-05-01T10:39:45.702Z,22.20
2018-05-01T10:42:13.584Z,22.40
2018-05-01T10:44:40.722Z,22.80
2018-05-01T10:47:07.110Z,22.80
2018-05-01T10:49:33.505Z,23.10
2018-05-01T10:51:59.891Z,23.30
2018-05-01T10:54:26.286Z,22.60
2018-05-01T10:56:52.676Z,22.50
2018-05-01T10:59:20.550Z,22.00
2018-05-01T11:01:46.963Z,22.00
2018-05-01T11:04:13.374Z,22.20
2018-05-01T11:06:39.779Z,22.10
2018-05-01T11:09:06.198Z,22.00
2018-05-01T11:11:33.330Z,22.20
2018-05-01T11:14:00.462Z,22.30
2018-05-01T11:16:26.863Z,22.30
2018-05-01T11:18:53.255Z,22.40
2018-05-01T11:21:20.388Z,22.50
2018-05-01T11:23:47.530Z,22.40
2018-05-01T11:26:13.967Z,22.40
2018-05-01T11:28:40.345Z,22.30
2018-05-01T11:31:06.728Z,22.40
2018-05-01T11:33:33.134Z,22.30
2018-05-01T11:36:01.043Z,21.70
2018-05-01T11:38:28.944Z,21.70
2018-05-01T11:40:55.328Z,21.70
2018-05-01T11:43:21.733Z,21.70
2018-05-01T11:45:48.139Z,22.00
2018-05-01T11:48:14.589Z,22.10
2018-05-01T11:50:41.008Z,22.30
2018-05-01T11:53:07.392Z,22.50
2018-05-01T11:55:33.795Z,22.70
2018-05-01T11:58:00.202Z,22.60
2018-05-01T12:00:26.598Z,22.50
2018-05-01T12:02:52.979Z,22.80
2018-05-01T12:05:19.366Z,23.30
2018-05-01T12:07:45.948Z,23.10
2018-05-01T12:10:13.104Z,22.80
2018-05-01T12:12:39.559Z,22.80
2018-05-01T12:15:06.726Z,22.50
2018-05-01T12:17:33.112Z,22.50
2018-05-01T12:19:59.507Z,22.20
2018-05-01T12:22:25.888Z,22.00
2018-05-01T12:24:52.270Z,22.00
2018-05-01T12:27:19.402Z,21.90
2018-05-01T12:29:45.794Z,21.90
2018-05-01T12:32:12.186Z,22.00
2018-05-01T12:34:38.576Z,22.10
2018-05-01T12:37:05.003Z,22.10
2018-05-01T12:39:31.574Z,21.90
2018-05-01T12:41:58.020Z,21.70
2018-05-01T12:44:25.271Z,21.80
2018-05-01T12:46:52.472Z,21.80
2018-05-01T12:49:18.921Z,21.80
2018-05-01T12:51:45.364Z,21.90
2018-05-01T12:54:11.799Z,22.00
2018-05-01T12:56:38.221Z,22.10
2018-05-01T12:59:04.750Z,22.10
2018-05-01T13:01:31.121Z,22.60
2018-05-01T13:03:58.294Z,22.80
2018-05-01T13:06:24.726Z,22.80
2018-05-01T13:08:51.960Z,22.60
2018-05-01T13:11:19.151Z,22.70
2018-05-01T13:13:45.594Z,22.70
2018-05-01T13:16:12.155Z,22.40
2018-05-01T13:18:38.556Z,22.30
2018-05-01T13:21:04.966Z,22.40
2018-05-01T13:23:31.363Z,22.80
2018-05-01T13:25:57.767Z,22.90
2018-05-01T13:28:24.163Z,22.80
2018-05-01T13:30:51.298Z,23.10
2018-05-01T13:33:17.697Z,23.10
2018-05-01T13:46:17.122Z,22.90
